Time;durP1;ratioP1;P1;durP2;ratioP2;P2;SDS_P1;SDS_P2;PMS_P1;PMS_P2;Temp;Humidity;BMP_temperature;BMP_pressure;BME280_temperature;BME280_humidity;BME280_pressure;Samples;Min_cycle;Max_cycle;Signal;HPM_P1;HPM_P2
2022/01/02 00:02:16;;;;;;;7.70;3.05;;;10.00;99.90;;;;;;5072301;28;20044;-70
2022/01/02 00:04:47;;;;;;;6.40;3.10;;;10.00;99.90;;;;;;5071525;28;20390;-71
2022/01/02 00:07:16;;;;;;;3.15;2.88;;;10.00;99.90;;;;;;5071984;28;20048;-70
2022/01/02 00:09:45;;;;;;;7.72;3.20;;;10.00;99.90;;;;;;5071996;28;20098;-69
2022/01/02 00:12:14;;;;;;;4.03;3.10;;;9.90;99.90;;;;;;5072214;28;20044;-72
2022/01/02 00:14:45;;;;;;;5.72;3.30;;;9.90;99.90;;;;;;5071306;28;20045;-71
2022/01/02 00:17:12;;;;;;;4.63;2.72;;;9.90;99.90;;;;;;5072029;28;20055;-71
2022/01/02 00:19:46;;;;;;;11.57;4.10;;;9.80;99.90;;;;;;5071677;28;20044;-70
2022/01/02 00:22:16;;;;;;;4.28;3.63;;;9.80;99.90;;;;;;5071824;28;20490;-71
2022/01/02 00:24:44;;;;;;;5.35;3.10;;;9.90;99.90;;;;;;5071372;28;20139;-72
2022/01/02 00:27:12;;;;;;;4.63;3.13;;;9.80;99.90;;;;;;5071767;28;20120;-72
2022/01/02 00:29:40;;;;;;;7.40;3.75;;;9.80;99.90;;;;;;5071654;28;20485;-72
2022/01/02 00:32:07;;;;;;;8.02;3.90;;;9.80;99.90;;;;;;5071820;28;20102;-72
2022/01/02 00:34:35;;;;;;;6.72;3.25;;;9.70;99.90;;;;;;5070979;28;20048;-70
2022/01/02 00:37:03;;;;;;;5.85;3.08;;;9.70;99.90;;;;;;5071818;28;20040;-73
2022/01/02 00:39:30;;;;;;;5.82;3.28;;;9.70;99.90;;;;;;5071712;28;20040;-72
2022/01/02 00:42:01;;;;;;;6.25;3.63;;;9.70;99.90;;;;;;5071542;28;20497;-72
2022/01/02 00:44:49;;;;;;;5.75;3.40;;;9.60;99.90;;;;;;5070989;28;20052;-72
2022/01/02 00:47:20;;;;;;;6.10;3.53;;;9.60;99.90;;;;;;5071377;28;20508;-71
2022/01/02 00:49:56;;;;;;;;;;;9.50;99.90;;;;;;5072147;28;20055;-73
2022/01/02 00:52:24;;;;;;;10.63;4.35;;;9.40;99.90;;;;;;5071667;28;19920;-72
2022/01/02 00:54:54;;;;;;;4.70;3.38;;;9.30;99.90;;;;;;5070684;28;20094;-72
2022/01/02 00:57:34;;;;;;;7.18;3.90;;;9.30;99.90;;;;;;5071525;28;20049;-73
2022/01/02 01:00:07;;;;;;;7.68;3.88;;;9.30;99.90;;;;;;5071582;28;20048;-73
2022/01/02 01:02:35;;;;;;;7.05;4.30;;;9.30;99.90;;;;;;5071794;28;20099;-72
2022/01/02 01:05:06;;;;;;;6.28;4.10;;;9.20;99.90;;;;;;5071644;28;20056;-73
2022/01/02 01:07:35;;;;;;;5.93;4.68;;;9.20;99.90;;;;;;5074115;28;20045;-74
2022/01/02 01:10:11;;;;;;;9.70;3.90;;;9.20;99.90;;;;;;5078869;28;20040;-75
2022/01/02 01:12:37;;;;;;;6.05;4.45;;;9.20;99.90;;;;;;5075075;28;20052;-72
2022/01/02 01:15:07;;;;;;;5.85;4.03;;;9.10;99.90;;;;;;5080047;28;20074;-77
2022/01/02 01:17:35;;;;;;;7.80;3.67;;;9.10;99.90;;;;;;5077571;28;20045;-72
2022/01/02 01:20:02;;;;;;;8.07;4.18;;;9.00;99.90;;;;;;5071589;28;20459;-75
2022/01/02 01:22:29;;;;;;;7.85;4.82;;;9.00;99.90;;;;;;5071797;28;20048;-74
2022/01/02 01:24:57;;;;;;;6.60;4.38;;;9.10;99.90;;;;;;5071138;28;20101;-74
2022/01/02 01:27:24;;;;;;;9.90;5.63;;;9.00;99.90;;;;;;5071120;28;20463;-77
2022/01/02 01:29:50;;;;;;;6.78;4.53;;;8.90;99.90;;;;;;5071088;28;20070;-73
2022/01/02 01:32:17;;;;;;;6.88;5.50;;;8.90;99.90;;;;;;5071106;28;20092;-72
2022/01/02 01:34:43;;;;;;;7.95;5.22;;;9.00;99.90;;;;;;5070214;28;20111;-72
2022/01/02 01:37:10;;;;;;;9.02;5.15;;;8.90;99.90;;;;;;5071055;28;20044;-73
2022/01/02 01:39:37;;;;;;;12.55;5.85;;;8.90;99.90;;;;;;5071079;28;20109;-73
2022/01/02 01:42:10;;;;;;;12.23;5.22;;;8.80;99.90;;;;;;5071131;28;20052;-73
2022/01/02 01:44:51;;;;;;;7.95;5.20;;;8.80;99.90;;;;;;5070596;28;20049;-73
2022/01/02 01:47:18;;;;;;;13.82;5.10;;;8.70;99.90;;;;;;5071291;28;20139;-71
2022/01/02 01:49:45;;;;;;;8.20;5.03;;;8.80;99.90;;;;;;5070973;28;20436;-72
2022/01/02 01:52:11;;;;;;;10.88;5.30;;;8.70;99.90;;;;;;5071023;28;20044;-73
2022/01/02 01:54:38;;;;;;;10.80;5.03;;;8.70;99.90;;;;;;5070387;28;20056;-74
2022/01/02 01:57:06;;;;;;;7.15;4.40;;;8.70;99.90;;;;;;5071198;28;20076;-74
2022/01/02 01:59:33;;;;;;;7.03;5.00;;;8.70;99.90;;;;;;5071047;28;20106;-74
2022/01/02 02:02:00;;;;;;;8.07;4.97;;;8.70;99.90;;;;;;5070775;28;20114;-74
2022/01/02 02:04:28;;;;;;;9.70;4.68;;;8.70;99.90;;;;;;5070352;28;20538;-75
2022/01/02 02:06:56;;;;;;;6.22;5.38;;;8.70;99.90;;;;;;5073115;28;20451;-75
2022/01/02 02:09:27;;;;;;;8.93;4.88;;;8.70;99.90;;;;;;5074566;28;20045;-73
2022/01/02 02:11:59;;;;;;;7.00;4.80;;;8.70;99.90;;;;;;5074516;28;20052;-78
2022/01/02 02:14:27;;;;;;;13.30;5.57;;;8.70;99.90;;;;;;5074010;28;20052;-75
2022/01/02 02:16:54;;;;;;;7.07;4.68;;;8.70;99.90;;;;;;5074138;28;20049;-74
2022/01/02 02:19:20;;;;;;;7.28;4.88;;;8.70;99.90;;;;;;5074208;28;20040;-75
2022/01/02 02:21:48;;;;;;;8.85;5.65;;;8.70;99.90;;;;;;5074350;28;20044;-76
2022/01/02 02:24:15;;;;;;;8.07;5.22;;;8.70;99.90;;;;;;5073995;28;20048;-73
2022/01/02 02:26:41;;;;;;;8.10;5.22;;;8.70;99.90;;;;;;5073969;28;20501;-74
2022/01/02 02:29:08;;;;;;;9.93;5.38;;;8.70;99.90;;;;;;5074136;28;20057;-74
2022/01/02 02:31:37;;;;;;;7.90;5.60;;;8.70;99.90;;;;;;5073901;28;20044;-74
2022/01/02 02:34:03;;;;;;;7.88;5.22;;;8.70;99.90;;;;;;5073526;28;20052;-75
2022/01/02 02:36:30;;;;;;;10.40;4.97;;;8.70;99.90;;;;;;5074030;28;20048;-75
2022/01/02 02:38:58;;;;;;;10.15;5.55;;;8.60;99.90;;;;;;5074040;28;20389;-73
2022/01/02 02:41:30;;;;;;;9.63;5.30;;;8.60;99.90;;;;;;5073634;28;20041;-72
2022/01/02 02:44:03;;;;;;;6.88;5.68;;;8.60;99.90;;;;;;5073430;28;20044;-71
2022/01/02 02:49:14;;;;;;;12.10;5.90;;;8.60;99.90;;;;;;5072797;28;20055;-72
2022/01/02 02:51:49;;;;;;;6.25;4.85;;;8.50;99.90;;;;;;5073730;28;20112;-71
2022/01/02 02:54:21;;;;;;;7.68;4.63;;;8.50;99.90;;;;;;5073450;28;20088;-74
2022/01/02 02:56:56;;;;;;;10.55;4.35;;;8.40;99.90;;;;;;5074237;28;20451;-74
2022/01/02 02:59:23;;;;;;;5.30;4.78;;;8.30;99.90;;;;;;5074256;28;20055;-73
2022/01/02 03:01:50;;;;;;;8.40;5.18;;;8.30;99.90;;;;;;5074080;28;20459;-74
2022/01/02 03:04:17;;;;;;;5.22;4.50;;;8.30;99.90;;;;;;5073486;28;20044;-75
2022/01/02 03:06:44;;;;;;;6.97;4.80;;;8.30;99.90;;;;;;5073326;28;20131;-76
2022/01/02 03:09:11;;;;;;;5.50;4.30;;;8.30;99.90;;;;;;5073586;28;20036;-74
2022/01/02 03:11:40;;;;;;;8.00;4.50;;;8.30;99.90;;;;;;5073376;28;20044;-74
2022/01/02 03:14:09;;;;;;;10.38;5.35;;;8.40;99.90;;;;;;5073054;28;20078;-75
2022/01/02 03:16:35;;;;;;;5.40;4.55;;;8.30;99.90;;;;;;5073093;28;20052;-75
2022/01/02 03:19:02;;;;;;;9.93;4.57;;;8.30;99.90;;;;;;5072260;28;20090;-74
2022/01/02 03:21:29;;;;;;;5.88;3.88;;;8.40;99.90;;;;;;5073250;28;20048;-79
2022/01/02 03:23:55;;;;;;;6.80;4.05;;;8.50;99.90;;;;;;5073267;28;20041;-77
2022/01/02 03:26:22;;;;;;;6.43;4.55;;;8.50;99.90;;;;;;5072821;28;20053;-74
2022/01/02 03:28:50;;;;;;;8.10;4.22;;;8.40;99.90;;;;;;5073163;28;20121;-74
2022/01/02 03:31:17;;;;;;;9.52;3.35;;;8.40;99.90;;;;;;5072830;28;20058;-74
2022/01/02 03:33:44;;;;;;;6.03;4.63;;;8.40;99.90;;;;;;5072980;28;20049;-73
2022/01/02 03:36:11;;;;;;;6.20;4.20;;;8.30;99.90;;;;;;5072008;28;20558;-73
2022/01/02 03:38:38;;;;;;;7.00;4.35;;;8.40;99.90;;;;;;5072880;28;20040;-74
2022/01/02 03:41:04;;;;;;;5.78;4.43;;;8.40;99.90;;;;;;5072860;28;20063;-77
2022/01/02 03:43:31;;;;;;;5.88;4.05;;;8.50;99.90;;;;;;5072908;28;20049;-76
2022/01/02 03:46:02;;;;;;;6.43;4.35;;;8.40;99.90;;;;;;5072094;28;20052;-75
2022/01/02 03:48:29;;;;;;;6.35;3.72;;;8.40;99.90;;;;;;5072457;28;20053;-75
2022/01/02 03:50:55;;;;;;;8.02;4.82;;;8.40;99.90;;;;;;5072815;28;20075;-76
2022/01/02 03:53:22;;;;;;;10.02;4.65;;;8.40;99.90;;;;;;5072475;28;20048;-74
2022/01/02 03:55:49;;;;;;;4.18;3.70;;;8.40;99.90;;;;;;5071896;28;20064;-74
2022/01/02 03:58:15;;;;;;;5.43;3.63;;;8.30;99.90;;;;;;5072194;28;20044;-75
2022/01/02 04:00:42;;;;;;;5.82;4.13;;;8.30;99.90;;;;;;5072265;28;20572;-74
2022/01/02 04:03:10;;;;;;;9.48;4.00;;;8.30;99.90;;;;;;5072120;28;20041;-78
2022/01/02 04:05:36;;;;;;;7.10;4.32;;;8.30;99.90;;;;;;5071892;28;20048;-71
2022/01/02 04:08:04;;;;;;;5.82;4.45;;;8.30;99.90;;;;;;5072110;28;20091;-73
2022/01/02 04:10:31;;;;;;;6.85;4.35;;;8.30;99.90;;;;;;5072053;28;20070;-73
2022/01/02 04:12:58;;;;;;;7.75;4.25;;;8.30;99.90;;;;;;5071976;28;20159;-73
2022/01/02 04:15:24;;;;;;;5.75;3.75;;;8.30;99.90;;;;;;5071200;28;20400;-72
2022/01/02 04:17:51;;;;;;;5.35;3.60;;;8.30;99.90;;;;;;5072090;28;20247;-74
2022/01/02 04:20:22;;;;;;;5.25;4.38;;;8.30;99.90;;;;;;5072223;28;20045;-72
2022/01/02 04:22:49;;;;;;;5.50;3.40;;;8.30;99.90;;;;;;5071737;28;20051;-73
2022/01/02 04:25:15;;;;;;;4.82;3.75;;;8.20;99.90;;;;;;5071326;28;20444;-73
2022/01/02 04:27:42;;;;;;;5.95;4.50;;;8.30;99.90;;;;;;5071818;28;20048;-73
2022/01/02 04:30:12;;;;;;;5.25;4.20;;;8.30;99.90;;;;;;5071443;28;20071;-73
2022/01/02 04:32:39;;;;;;;5.43;4.18;;;8.30;99.90;;;;;;5071814;28;20075;-71
2022/01/02 04:35:06;;;;;;;3.97;3.33;;;8.30;99.90;;;;;;5071139;28;20052;-71
2022/01/02 04:37:34;;;;;;;5.75;3.63;;;8.20;99.90;;;;;;5071592;28;20048;-73
2022/01/02 04:40:01;;;;;;;5.43;3.90;;;8.30;99.90;;;;;;5071661;28;20056;-72
2022/01/02 04:42:27;;;;;;;5.38;4.07;;;8.20;99.90;;;;;;5071384;28;20493;-73
2022/01/02 04:44:54;;;;;;;5.38;3.47;;;8.20;99.90;;;;;;5070937;28;20048;-76
2022/01/02 04:47:20;;;;;;;5.28;4.20;;;8.20;99.90;;;;;;5071719;28;20052;-73
2022/01/02 04:49:47;;;;;;;5.40;3.78;;;8.30;99.90;;;;;;5071741;28;20045;-72
2022/01/02 04:52:14;;;;;;;6.78;3.85;;;8.20;99.90;;;;;;5071468;28;20040;-72
2022/01/02 04:54:42;;;;;;;4.93;3.63;;;8.20;99.90;;;;;;5070808;28;20060;-73
2022/01/02 04:57:08;;;;;;;6.45;4.00;;;8.20;99.90;;;;;;5071338;28;20048;-72
2022/01/02 04:59:37;;;;;;;7.40;3.65;;;8.10;99.90;;;;;;5071615;28;20451;-72
2022/01/02 05:02:04;;;;;;;7.55;4.65;;;8.20;99.90;;;;;;5071602;28;20049;-73
2022/01/02 05:04:30;;;;;;;6.38;4.15;;;8.10;99.90;;;;;;5070893;28;20103;-72
2022/01/02 05:06:57;;;;;;;7.72;4.32;;;8.10;99.90;;;;;;5071281;28;20044;-73
2022/01/02 05:09:24;;;;;;;7.13;4.13;;;8.10;99.90;;;;;;5071229;28;20464;-74
2022/01/02 05:11:52;;;;;;;6.25;4.22;;;8.10;99.90;;;;;;5071283;28;20068;-71
2022/01/02 05:14:19;;;;;;;7.78;3.67;;;8.10;99.90;;;;;;5070856;28;20045;-72
2022/01/02 05:16:45;;;;;;;5.70;3.70;;;8.00;99.90;;;;;;5071402;28;20045;-73
2022/01/02 05:19:12;;;;;;;6.65;3.95;;;8.00;99.90;;;;;;5071072;28;20496;-70
2022/01/02 05:21:38;;;;;;;9.35;4.30;;;7.90;99.90;;;;;;5071129;28;20044;-71
2022/01/02 05:24:05;;;;;;;4.53;3.83;;;7.90;99.90;;;;;;5070703;28;20046;-72
2022/01/02 05:26:32;;;;;;;8.32;4.03;;;7.90;99.90;;;;;;5071142;28;20097;-71
2022/01/02 05:29:01;;;;;;;5.45;3.25;;;7.90;99.90;;;;;;5071342;28;20055;-77
2022/01/02 05:31:27;;;;;;;3.92;3.58;;;7.80;99.90;;;;;;5071070;28;20492;-73
2022/01/02 05:33:54;;;;;;;6.70;3.60;;;7.80;99.90;;;;;;5071147;28;20439;-72
2022/01/02 05:36:20;;;;;;;8.40;4.50;;;7.80;99.90;;;;;;5070554;28;20052;-72
2022/01/02 05:38:47;;;;;;;6.25;4.47;;;7.70;99.90;;;;;;5070916;28;20045;-73
2022/01/02 05:41:14;;;;;;;4.93;3.55;;;7.70;99.90;;;;;;5072658;28;20051;-72
2022/01/02 05:43:40;;;;;;;5.93;3.75;;;7.70;99.90;;;;;;5074981;28;20048;-73
2022/01/02 05:46:10;;;;;;;8.43;4.10;;;7.70;99.90;;;;;;5074536;28;20044;-73
2022/01/02 05:48:37;;;;;;;3.53;3.22;;;7.80;99.90;;;;;;5074710;28;20091;-73
2022/01/02 05:51:04;;;;;;;6.85;4.03;;;7.80;99.90;;;;;;5074828;28;20163;-72
2022/01/02 05:53:31;;;;;;;3.53;3.20;;;7.70;99.90;;;;;;5074507;28;20075;-73
2022/01/02 05:55:57;;;;;;;6.57;3.40;;;7.60;99.90;;;;;;5073964;28;20579;-75
2022/01/02 05:58:24;;;;;;;9.98;3.70;;;7.70;99.90;;;;;;5074960;28;20105;-73
2022/01/02 06:00:51;;;;;;;5.68;4.43;;;7.70;99.90;;;;;;5074524;28;20497;-72
2022/01/02 06:03:19;;;;;;;6.47;4.13;;;7.60;99.90;;;;;;5074534;28;20040;-72
2022/01/02 06:05:46;;;;;;;5.70;4.07;;;7.60;99.90;;;;;;5073789;28;20044;-73
2022/01/02 06:08:13;;;;;;;7.82;4.40;;;7.70;99.90;;;;;;5074217;28;20114;-74
2022/01/02 06:10:39;;;;;;;4.40;3.72;;;7.70;99.90;;;;;;5074640;28;20536;-72
2022/01/02 06:13:06;;;;;;;11.95;4.15;;;7.60;99.90;;;;;;5074305;28;20390;-74
2022/01/02 06:15:33;;;;;;;7.07;3.78;;;7.60;99.90;;;;;;5073646;28;20105;-75
2022/01/02 06:17:59;;;;;;;6.25;3.95;;;7.60;99.90;;;;;;5074147;28;20091;-74
2022/01/02 06:20:28;;;;;;;6.43;3.67;;;7.40;99.90;;;;;;5074204;28;20051;-73
2022/01/02 06:22:54;;;;;;;9.93;3.92;;;7.50;99.90;;;;;;5074311;28;20098;-75
2022/01/02 06:25:22;;;;;;;6.10;4.10;;;7.50;99.90;;;;;;5073640;28;20048;-75
2022/01/02 06:27:49;;;;;;;5.93;3.20;;;7.50;99.90;;;;;;5074186;28;20048;-73
2022/01/02 06:30:16;;;;;;;10.63;5.00;;;7.60;99.90;;;;;;5074140;28;20045;-73
2022/01/02 06:32:43;;;;;;;5.07;4.03;;;7.60;99.90;;;;;;5073970;28;20040;-73
2022/01/02 06:35:10;;;;;;;5.30;3.50;;;7.60;99.90;;;;;;5073202;28;20055;-73
2022/01/02 06:37:38;;;;;;;6.03;3.35;;;7.60;99.90;;;;;;5074100;28;20045;-73
2022/01/02 06:40:06;;;;;;;6.57;4.38;;;7.60;99.90;;;;;;5073809;28;20485;-72
2022/01/02 06:42:33;;;;;;;5.25;3.35;;;7.60;99.90;;;;;;5074103;28;20098;-74
2022/01/02 06:44:59;;;;;;;7.95;4.75;;;7.60;99.90;;;;;;5073094;28;20056;-74
2022/01/02 06:47:26;;;;;;;6.57;4.43;;;7.60;99.90;;;;;;5073639;28;20106;-75
2022/01/02 06:49:52;;;;;;;6.10;3.72;;;7.60;99.90;;;;;;5073393;28;20409;-75
2022/01/02 06:52:19;;;;;;;4.95;4.47;;;7.60;99.90;;;;;;5073665;28;20048;-75
2022/01/02 06:54:47;;;;;;;9.00;4.50;;;7.60;99.90;;;;;;5073024;28;20049;-74
2022/01/02 06:57:14;;;;;;;8.82;3.92;;;7.50;99.90;;;;;;5074133;28;20511;-75
2022/01/02 06:59:41;;;;;;;7.03;4.60;;;7.50;99.90;;;;;;5073973;28;20398;-74
2022/01/02 07:02:08;;;;;;;5.68;3.88;;;7.50;99.90;;;;;;5073337;28;20048;-76
2022/01/02 07:04:34;;;;;;;5.55;4.38;;;7.50;99.90;;;;;;5073176;28;20052;-75
2022/01/02 07:07:01;;;;;;;4.57;3.95;;;7.60;99.90;;;;;;5073521;28;20052;-73
2022/01/02 07:09:29;;;;;;;7.57;4.00;;;7.70;99.90;;;;;;5073712;28;20045;-75
2022/01/02 07:11:57;;;;;;;6.88;4.10;;;7.70;99.90;;;;;;5073616;28;20044;-73
2022/01/02 07:14:26;;;;;;;8.50;4.10;;;7.70;99.90;;;;;;5073473;28;20481;-74
2022/01/02 07:16:53;;;;;;;5.82;4.20;;;7.80;99.90;;;;;;5074108;28;20049;-74
2022/01/02 07:19:19;;;;;;;7.18;4.70;;;7.90;99.90;;;;;;5074864;28;20048;-74
2022/01/02 07:21:46;;;;;;;5.18;3.58;;;7.90;99.90;;;;;;5075593;28;20045;-74
2022/01/02 07:24:13;;;;;;;7.80;4.68;;;8.00;99.90;;;;;;5074703;28;20041;-74
2022/01/02 07:26:39;;;;;;;5.43;3.60;;;8.10;99.90;;;;;;5074346;28;20193;-73
2022/01/02 07:29:07;;;;;;;8.45;3.78;;;8.10;99.90;;;;;;5073014;28;20045;-74
2022/01/02 07:31:34;;;;;;;8.00;4.07;;;8.20;99.90;;;;;;5073244;28;20052;-75
2022/01/02 07:34:00;;;;;;;7.80;3.67;;;8.20;99.90;;;;;;5072409;28;20048;-76
2022/01/02 07:36:27;;;;;;;6.30;3.95;;;8.30;99.90;;;;;;5072623;28;20451;-73
2022/01/02 07:38:54;;;;;;;6.95;4.28;;;8.30;99.90;;;;;;5072813;28;20102;-74
2022/01/02 07:41:20;;;;;;;4.93;3.40;;;8.30;99.90;;;;;;5072561;28;20044;-74
2022/01/02 07:43:47;;;;;;;6.07;4.22;;;8.40;99.90;;;;;;5072664;28;20080;-75
2022/01/02 07:46:15;;;;;;;4.53;3.08;;;8.40;99.90;;;;;;5072065;28;20649;-74
2022/01/02 07:48:42;;;;;;;5.75;3.30;;;8.40;99.90;;;;;;5072468;28;20075;-75
2022/01/02 07:51:08;;;;;;;4.15;3.47;;;8.40;99.90;;;;;;5072303;28;20048;-75
2022/01/02 07:53:35;;;;;;;7.07;4.25;;;8.40;99.90;;;;;;5072563;28;20094;-73
2022/01/02 07:56:02;;;;;;;4.43;3.42;;;8.50;99.90;;;;;;5071561;28;20079;-75
2022/01/02 07:58:28;;;;;;;9.02;3.45;;;8.50;99.90;;;;;;5072210;28;20562;-74
2022/01/02 08:00:55;;;;;;;4.78;3.58;;;8.50;99.90;;;;;;5072532;28;20048;-74
2022/01/02 08:03:23;;;;;;;6.75;3.88;;;8.50;99.90;;;;;;5072193;28;20185;-74
2022/01/02 08:05:49;;;;;;;4.88;3.60;;;8.50;99.90;;;;;;5071854;28;20044;-74
2022/01/02 08:08:16;;;;;;;4.70;3.50;;;8.50;99.90;;;;;;5072182;28;20090;-74
2022/01/02 08:10:43;;;;;;;4.38;3.03;;;8.60;99.90;;;;;;5071991;28;20524;-73
2022/01/02 08:13:09;;;;;;;5.32;3.97;;;8.60;99.90;;;;;;5071995;28;20040;-76
2022/01/02 08:15:36;;;;;;;4.78;3.42;;;8.60;99.90;;;;;;5071702;28;20091;-75
2022/01/02 08:18:02;;;;;;;4.57;3.75;;;8.60;99.90;;;;;;5072358;28;20041;-75
2022/01/02 08:20:30;;;;;;;5.10;3.33;;;8.70;99.90;;;;;;5072191;28;20079;-72
2022/01/02 08:22:57;;;;;;;6.03;3.25;;;8.70;99.90;;;;;;5071973;28;20098;-71
2022/01/02 08:25:24;;;;;;;3.13;2.75;;;8.70;99.90;;;;;;5071079;28;20102;-72
2022/01/02 08:27:50;;;;;;;7.40;4.03;;;8.70;99.90;;;;;;5071884;28;20452;-72
2022/01/02 08:30:17;;;;;;;4.57;3.40;;;8.80;99.90;;;;;;5071716;28;20044;-73
2022/01/02 08:32:44;;;;;;;5.18;2.72;;;8.80;99.90;;;;;;5071950;28;20049;-72
2022/01/02 08:35:10;;;;;;;3.80;3.40;;;8.90;99.90;;;;;;5071442;28;20051;-75
2022/01/02 08:37:39;;;;;;;5.47;3.00;;;8.90;99.90;;;;;;5071858;28;20045;-75
2022/01/02 08:40:07;;;;;;;4.60;2.75;;;9.00;99.90;;;;;;5071732;28;20052;-76
2022/01/02 08:42:34;;;;;;;3.28;2.85;;;9.10;99.90;;;;;;5071876;28;20443;-80
2022/01/02 08:45:00;;;;;;;4.40;2.83;;;9.20;99.90;;;;;;5071703;28;20040;-75
2022/01/02 08:47:27;;;;;;;3.28;2.88;;;9.20;99.90;;;;;;5071910;28;20049;-73
2022/01/02 08:49:54;;;;;;;3.42;2.65;;;9.20;99.90;;;;;;5071680;28;20048;-74
2022/01/02 08:52:21;;;;;;;6.15;2.33;;;9.20;99.90;;;;;;5071658;28;20130;-72
2022/01/02 08:54:50;;;;;;;3.70;2.83;;;9.20;99.90;;;;;;5070974;28;20056;-73
2022/01/02 08:57:17;;;;;;;3.88;3.10;;;9.30;99.90;;;;;;5071313;28;20136;-73
2022/01/02 08:59:43;;;;;;;7.13;3.38;;;9.30;99.90;;;;;;5071639;28;20049;-72
2022/01/02 09:02:10;;;;;;;5.85;2.95;;;9.30;99.90;;;;;;5071692;28;20071;-74
2022/01/02 09:04:37;;;;;;;3.47;2.92;;;9.20;99.90;;;;;;5071468;28;20040;-74
2022/01/02 09:07:04;;;;;;;3.33;2.33;;;9.30;99.90;;;;;;5071562;28;20467;-79
2022/01/02 09:09:30;;;;;;;6.03;3.10;;;9.30;99.90;;;;;;5071922;28;20129;-73
2022/01/02 09:11:58;;;;;;;11.23;6.82;;;9.40;99.90;;;;;;5071751;28;20106;-72
2022/01/02 09:14:25;;;;;;;6.35;3.55;;;9.40;99.90;;;;;;5071737;28;20044;-73
2022/01/02 09:16:52;;;;;;;4.57;3.15;;;9.40;99.90;;;;;;5075669;28;20086;-72
2022/01/02 09:19:18;;;;;;;3.05;2.50;;;9.50;99.90;;;;;;5075105;28;20496;-73
2022/01/02 09:21:45;;;;;;;5.18;2.25;;;9.50;99.90;;;;;;5075055;28;20048;-73
2022/01/02 09:24:12;;;;;;;4.57;2.60;;;9.60;99.90;;;;;;5074998;28;20102;-72
2022/01/02 09:26:38;;;;;;;3.67;2.38;;;9.60;99.90;;;;;;5075237;28;20048;-73
2022/01/02 09:29:06;;;;;;;3.97;2.72;;;9.70;99.90;;;;;;5076160;28;20044;-73
2022/01/02 09:31:33;;;;;;;4.75;2.25;;;9.70;99.90;;;;;;5075061;28;20049;-72
2022/01/02 09:34:00;;;;;;;5.32;2.97;;;9.70;99.90;;;;;;5074756;28;20045;-73
2022/01/02 09:36:27;;;;;;;3.97;3.58;;;9.80;99.90;;;;;;5074568;28;20400;-74
2022/01/02 09:38:56;;;;;;;4.15;2.80;;;9.80;99.90;;;;;;5075230;28;20040;-73
2022/01/02 09:41:23;;;;;;;3.83;3.08;;;9.80;99.90;;;;;;5074967;28;20056;-72
2022/01/02 09:43:50;;;;;;;2.38;2.00;;;9.80;99.90;;;;;;5074938;28;20052;-72
2022/01/02 09:46:22;;;;;;;6.53;3.30;;;9.80;99.90;;;;;;5074115;28;20049;-77
2022/01/02 09:48:49;;;;;;;;;;;9.80;99.90;;;;;;5075207;28;20489;-73
2022/01/02 09:51:16;;;;;;;3.33;2.42;;;9.80;99.90;;;;;;5074941;28;19974;-76
2022/01/02 09:53:44;;;;;;;5.00;2.33;;;9.80;99.90;;;;;;5074900;28;20048;-77
2022/01/02 09:56:11;;;;;;;6.05;3.10;;;9.80;99.90;;;;;;5074238;28;20094;-75
2022/01/02 09:58:42;;;;;;;5.15;2.00;;;9.80;99.90;;;;;;5074744;28;20133;-72
2022/01/02 10:01:13;;;;;;;4.10;2.85;;;9.90;99.90;;;;;;5074277;28;20485;-73
2022/01/02 10:03:46;;;;;;;3.42;2.60;;;9.80;99.90;;;;;;5074288;28;20048;-73
2022/01/02 10:06:13;;;;;;;6.07;3.00;;;9.90;99.90;;;;;;5074066;28;20048;-73
2022/01/02 10:08:40;;;;;;;3.13;2.42;;;9.90;99.90;;;;;;5074285;28;20572;-72
2022/01/02 10:11:15;;;;;;;5.40;2.83;;;9.90;99.90;;;;;;5074455;28;20044;-73
2022/01/02 10:13:44;;;;;;;6.03;2.33;;;10.00;99.90;;;;;;5074194;28;20136;-75
2022/01/02 10:16:23;;;;;;;4.53;2.78;;;10.00;99.90;;;;;;5074022;28;20079;-75
2022/01/02 10:18:52;;;;;;;4.32;2.28;;;10.00;99.90;;;;;;5074240;28;20052;-76
2022/01/02 10:21:38;;;;;;;4.13;2.55;;;10.10;99.90;;;;;;5074371;28;20049;-75
2022/01/02 10:24:17;;;;;;;3.47;2.58;;;10.00;99.90;;;;;;5073799;28;20048;-75
2022/01/02 10:27:07;;;;;;;6.03;2.65;;;10.10;99.90;;;;;;5073885;28;20056;-76
2022/01/02 10:29:43;;;;;;;4.22;2.35;;;10.10;99.90;;;;;;5074422;28;20102;-74
2022/01/02 10:32:41;;;;;;;3.20;2.45;;;10.10;99.90;;;;;;5074053;28;20056;-74
2022/01/02 10:35:15;;;;;;;8.07;2.55;;;10.20;99.90;;;;;;5073567;28;20132;-75
2022/01/02 10:37:43;;;;;;;4.55;2.58;;;10.20;99.90;;;;;;5073962;28;20121;-74
2022/01/02 10:40:31;;;;;;;3.72;3.42;;;10.20;99.90;;;;;;5073770;28;20489;-73
2022/01/02 10:42:59;;;;;;;3.35;2.15;;;10.20;99.90;;;;;;5073743;28;20181;-79
2022/01/02 10:45:33;;;;;;;2.67;2.08;;;10.20;99.90;;;;;;5073408;28;20443;-75
2022/01/02 10:48:00;;;;;;;10.98;4.28;;;10.10;99.90;;;;;;5073777;28;20048;-75
2022/01/02 10:50:28;;;;;;;3.28;2.13;;;10.20;99.90;;;;;;5073559;28;20485;-75
2022/01/02 10:52:55;;;;;;;6.50;2.22;;;10.20;99.90;;;;;;5073513;28;20097;-75
2022/01/02 10:55:24;;;;;;;4.63;2.33;;;10.20;99.90;;;;;;5073412;28;20045;-74
2022/01/02 10:57:52;;;;;;;7.78;2.72;;;10.20;99.90;;;;;;5073746;28;20083;-75
2022/01/02 11:00:21;;;;;;;3.38;2.53;;;10.20;99.90;;;;;;5073869;28;20045;-75
2022/01/02 11:02:47;;;;;;;4.68;2.50;;;10.20;99.90;;;;;;5073452;28;20105;-74
2022/01/02 11:05:15;;;;;;;5.47;3.17;;;10.20;99.90;;;;;;5072975;28;20114;-76
2022/01/02 11:07:45;;;;;;;3.53;2.20;;;10.20;99.90;;;;;;5073200;28;20496;-75
2022/01/02 11:10:14;;;;;;;56.53;26.98;;;10.20;99.90;;;;;;5073286;28;20102;-73
2022/01/02 11:12:42;;;;;;;7.50;5.68;;;10.10;99.90;;;;;;5073741;28;20102;-73
2022/01/02 11:15:10;;;;;;;9.25;5.13;;;10.20;99.90;;;;;;5072657;28;20386;-74
2022/01/02 11:17:37;;;;;;;4.53;2.75;;;10.20;99.90;;;;;;5072881;28;20558;-72
2022/01/02 11:20:05;;;;;;;7.10;3.05;;;10.20;99.90;;;;;;5073237;28;20454;-73
2022/01/02 11:22:36;;;;;;;7.13;3.22;;;10.20;99.90;;;;;;5073242;28;20052;-77
2022/01/02 11:25:08;;;;;;;7.32;3.80;;;10.30;99.90;;;;;;5072758;28;20048;-79
2022/01/02 11:27:41;;;;;;;4.65;2.67;;;10.20;99.90;;;;;;5072861;28;20071;-79
2022/01/02 11:30:40;;;;;;;3.65;2.45;;;10.20;99.90;;;;;;5073331;28;20102;-75
2022/01/02 11:33:09;;;;;;;7.20;3.05;;;10.20;99.90;;;;;;5072698;28;20623;-74
2022/01/02 11:35:37;;;;;;;6.85;2.78;;;10.20;99.90;;;;;;5072634;28;20048;-77
2022/01/02 11:38:06;;;;;;;3.58;2.78;;;10.20;99.90;;;;;;5072358;28;20109;-75
2022/01/02 11:40:57;;;;;;;6.10;2.83;;;10.20;99.90;;;;;;5072592;28;20504;-74
2022/01/02 11:43:54;;;;;;;3.72;2.45;;;10.10;99.90;;;;;;5074659;28;20063;-72
2022/01/02 11:46:24;;;;;;;7.07;3.33;;;10.10;99.90;;;;;;4991021;28;20094;-72
2022/01/02 11:49:14;;;;;;;5.22;3.58;;;10.20;99.90;;;;;;5055154;28;20048;-71
2022/01/02 11:52:01;;;;;;;5.25;3.20;;;10.10;99.90;;;;;;5072621;28;20044;-73
2022/01/02 11:54:47;;;;;;;6.70;2.78;;;10.20;99.90;;;;;;5071657;28;20488;-73
2022/01/02 11:57:51;;;;;;;3.97;2.97;;;10.10;99.90;;;;;;5072182;28;20416;-74
2022/01/02 12:00:49;;;;;;;4.90;3.22;;;10.10;99.90;;;;;;5072111;28;20052;-72
2022/01/02 12:03:50;;;;;;;5.50;2.60;;;10.20;99.90;;;;;;5072052;28;20559;-72
2022/01/02 12:06:23;;;;;;;3.13;2.63;;;10.20;99.90;;;;;;5071638;28;20054;-73
2022/01/02 12:08:50;;;;;;;4.60;2.78;;;10.10;99.90;;;;;;5072353;28;20048;-73
2022/01/02 12:11:44;;;;;;;5.80;3.53;;;10.20;99.90;;;;;;5072267;28;20044;-74
2022/01/02 12:14:22;;;;;;;3.70;3.03;;;10.10;99.90;;;;;;5069569;28;20044;-75
2022/01/02 12:16:58;;;;;;;3.78;2.58;;;10.10;99.90;;;;;;5071867;28;20469;-74
2022/01/02 12:19:25;;;;;;;6.45;3.90;;;10.10;99.90;;;;;;5071710;28;20500;-72
2022/01/02 12:22:12;;;;;;;3.75;3.15;;;10.10;99.90;;;;;;5072014;28;20095;-75
2022/01/02 12:24:39;;;;;;;5.47;3.33;;;10.10;99.90;;;;;;5071066;28;20412;-74
2022/01/02 12:27:13;;;;;;;5.78;3.60;;;10.10;99.90;;;;;;5071445;28;20056;-76
2022/01/02 12:29:41;;;;;;;6.03;3.25;;;10.10;99.90;;;;;;5072002;28;20044;-73
2022/01/02 12:32:10;;;;;;;6.38;3.80;;;10.10;99.90;;;;;;5071853;28;20044;-73
2022/01/02 12:34:37;;;;;;;5.93;3.42;;;10.10;99.90;;;;;;5075605;28;20066;-74
2022/01/02 12:37:04;;;;;;;5.38;4.07;;;10.10;99.90;;;;;;5075357;28;20469;-74
2022/01/02 12:39:33;;;;;;;3.58;2.08;;;10.00;99.90;;;;;;5071420;28;20497;-74
2022/01/02 12:42:05;;;;;;;6.97;3.97;;;10.10;99.90;;;;;;5071506;28;20059;-74
2022/01/02 12:44:34;;;;;;;4.00;2.97;;;10.00;99.90;;;;;;5070417;28;20094;-73
2022/01/02 12:47:03;;;;;;;11.32;3.92;;;10.00;99.90;;;;;;5071882;28;20049;-74
2022/01/02 12:49:33;;;;;;;9.13;3.35;;;10.00;99.90;;;;;;5071664;28;20048;-74
2022/01/02 12:52:02;;;;;;;8.95;5.10;;;10.00;99.90;;;;;;5071692;28;20102;-75
2022/01/02 12:54:31;;;;;;;10.93;5.35;;;9.90;99.90;;;;;;5071290;28;20070;-74
2022/01/02 12:57:00;;;;;;;6.32;4.22;;;9.90;99.90;;;;;;5071552;28;20485;-73
2022/01/02 12:59:30;;;;;;;5.93;4.40;;;9.90;99.90;;;;;;5071408;28;20110;-75
2022/01/02 13:02:01;;;;;;;6.82;3.90;;;9.90;99.90;;;;;;5071836;28;20098;-70
2022/01/02 13:04:31;;;;;;;5.55;4.25;;;9.90;99.90;;;;;;5071064;28;20044;-72
2022/01/02 13:07:01;;;;;;;8.13;3.83;;;9.90;99.90;;;;;;5071433;28;20074;-73
2022/01/02 13:09:31;;;;;;;5.95;4.07;;;9.90;99.90;;;;;;5071804;28;20080;-72